sensor_id;sensor_type;location;lat;lon;timestamp;P1;durP1;ratioP1;P2;durP2;ratioP2
22144;SDS011;11238;48.730;11.566;2022-07-29T00:00:47;3.80;;;2.97;;
22144;SDS011;11238;48.730;11.566;2022-07-29T00:03:14;4.72;;;2.83;;
22144;SDS011;11238;48.730;11.566;2022-07-29T00:05:40;8.05;;;3.30;;
22144;SDS011;11238;48.730;11.566;2022-07-29T00:08:09;5.25;;;3.05;;
22144;SDS011;11238;48.730;11.566;2022-07-29T00:10:36;4.97;;;2.80;;
22144;SDS011;11238;48.730;11.566;2022-07-29T00:13:02;5.53;;;2.67;;
22144;SDS011;11238;48.730;11.566;2022-07-29T00:15:28;5.05;;;2.45;;
22144;SDS011;11238;48.730;11.566;2022-07-29T00:17:54;4.35;;;2.40;;
22144;SDS011;11238;48.730;11.566;2022-07-29T00:20:20;8.07;;;2.85;;
22144;SDS011;11238;48.730;11.566;2022-07-29T00:22:45;5.22;;;2.47;;
22144;SDS011;11238;48.730;11.566;2022-07-29T00:25:12;4.93;;;3.42;;
22144;SDS011;11238;48.730;11.566;2022-07-29T00:27:38;5.43;;;2.28;;
22144;SDS011;11238;48.730;11.566;2022-07-29T00:30:04;5.85;;;2.75;;
22144;SDS011;11238;48.730;11.566;2022-07-29T00:32:31;4.45;;;2.58;;
22144;SDS011;11238;48.730;11.566;2022-07-29T00:34:57;3.47;;;2.30;;
22144;SDS011;11238;48.730;11.566;2022-07-29T00:37:41;2.92;;;2.30;;
22144;SDS011;11238;48.730;11.566;2022-07-29T00:40:08;3.22;;;2.55;;
22144;SDS011;11238;48.730;11.566;2022-07-29T00:43:08;7.68;;;3.15;;
22144;SDS011;11238;48.730;11.566;2022-07-29T00:45:27;3.97;;;2.95;;
22144;SDS011;11238;48.730;11.566;2022-07-29T00:47:53;4.70;;;2.95;;
22144;SDS011;11238;48.730;11.566;2022-07-29T00:50:19;3.60;;;2.75;;
22144;SDS011;11238;48.730;11.566;2022-07-29T00:52:45;7.47;;;2.83;;
22144;SDS011;11238;48.730;11.566;2022-07-29T00:55:12;5.00;;;3.10;;
22144;SDS011;11238;48.730;11.566;2022-07-29T00:57:40;3.65;;;3.03;;
22144;SDS011;11238;48.730;11.566;2022-07-29T01:00:08;3.80;;;2.90;;
22144;SDS011;11238;48.730;11.566;2022-07-29T01:02:36;4.13;;;2.65;;
22144;SDS011;11238;48.730;11.566;2022-07-29T01:05:02;6.43;;;3.20;;
22144;SDS011;11238;48.730;11.566;2022-07-29T01:07:29;7.82;;;3.20;;
22144;SDS011;11238;48.730;11.566;2022-07-29T01:09:56;4.00;;;3.40;;
22144;SDS011;11238;48.730;11.566;2022-07-29T01:12:27;5.13;;;3.47;;
22144;SDS011;11238;48.730;11.566;2022-07-29T01:14:58;5.00;;;3.17;;
22144;SDS011;11238;48.730;11.566;2022-07-29T01:17:27;5.25;;;3.45;;
22144;SDS011;11238;48.730;11.566;2022-07-29T01:22:53;4.55;;;3.10;;
22144;SDS011;11238;48.730;11.566;2022-07-29T01:29:00;3.30;;;3.00;;
22144;SDS011;11238;48.730;11.566;2022-07-29T01:34:15;5.25;;;3.63;;
22144;SDS011;11238;48.730;11.566;2022-07-29T01:36:48;3.75;;;3.30;;
22144;SDS011;11238;48.730;11.566;2022-07-29T01:39:27;5.70;;;3.42;;
22144;SDS011;11238;48.730;11.566;2022-07-29T01:42:20;6.78;;;3.60;;
22144;SDS011;11238;48.730;11.566;2022-07-29T01:47:19;6.20;;;3.45;;
22144;SDS011;11238;48.730;11.566;2022-07-29T01:49:50;4.13;;;3.33;;
22144;SDS011;11238;48.730;11.566;2022-07-29T01:52:21;6.07;;;3.25;;
22144;SDS011;11238;48.730;11.566;2022-07-29T01:54:53;6.13;;;3.63;;
22144;SDS011;11238;48.730;11.566;2022-07-29T01:57:25;4.43;;;3.42;;
22144;SDS011;11238;48.730;11.566;2022-07-29T01:59:53;4.18;;;3.03;;
22144;SDS011;11238;48.730;11.566;2022-07-29T02:02:21;5.63;;;2.95;;
22144;SDS011;11238;48.730;11.566;2022-07-29T02:04:47;4.60;;;3.42;;
22144;SDS011;11238;48.730;11.566;2022-07-29T02:07:17;5.10;;;3.30;;
22144;SDS011;11238;48.730;11.566;2022-07-29T02:09:45;4.15;;;3.25;;
22144;SDS011;11238;48.730;11.566;2022-07-29T02:12:13;4.50;;;3.22;;
22144;SDS011;11238;48.730;11.566;2022-07-29T02:14:45;3.17;;;2.88;;
22144;SDS011;11238;48.730;11.566;2022-07-29T02:17:15;3.38;;;3.00;;
22144;SDS011;11238;48.730;11.566;2022-07-29T02:19:50;6.47;;;3.28;;
22144;SDS011;11238;48.730;11.566;2022-07-29T02:22:19;3.45;;;3.08;;
22144;SDS011;11238;48.730;11.566;2022-07-29T02:24:46;4.68;;;3.28;;
22144;SDS011;11238;48.730;11.566;2022-07-29T02:27:14;4.70;;;3.22;;
22144;SDS011;11238;48.730;11.566;2022-07-29T02:29:41;6.65;;;3.40;;
22144;SDS011;11238;48.730;11.566;2022-07-29T02:32:08;3.72;;;3.17;;
22144;SDS011;11238;48.730;11.566;2022-07-29T02:34:35;4.15;;;3.40;;
22144;SDS011;11238;48.730;11.566;2022-07-29T02:37:04;3.88;;;3.20;;
22144;SDS011;11238;48.730;11.566;2022-07-29T02:39:30;4.97;;;3.58;;
22144;SDS011;11238;48.730;11.566;2022-07-29T02:42:02;6.70;;;3.30;;
22144;SDS011;11238;48.730;11.566;2022-07-29T02:49:43;4.78;;;3.53;;
22144;SDS011;11238;48.730;11.566;2022-07-29T02:52:28;5.25;;;3.80;;
22144;SDS011;11238;48.730;11.566;2022-07-29T02:55:07;5.32;;;3.55;;
22144;SDS011;11238;48.730;11.566;2022-07-29T02:57:51;3.83;;;3.50;;
22144;SDS011;11238;48.730;11.566;2022-07-29T03:00:37;5.53;;;3.35;;
22144;SDS011;11238;48.730;11.566;2022-07-29T03:03:07;4.13;;;3.45;;
22144;SDS011;11238;48.730;11.566;2022-07-29T03:05:37;4.97;;;3.38;;
22144;SDS011;11238;48.730;11.566;2022-07-29T03:08:04;4.25;;;3.38;;
22144;SDS011;11238;48.730;11.566;2022-07-29T03:10:33;5.93;;;3.10;;
22144;SDS011;11238;48.730;11.566;2022-07-29T03:13:00;4.05;;;3.30;;
22144;SDS011;11238;48.730;11.566;2022-07-29T03:15:26;3.92;;;3.10;;
22144;SDS011;11238;48.730;11.566;2022-07-29T03:17:53;4.25;;;3.20;;
22144;SDS011;11238;48.730;11.566;2022-07-29T03:20:20;3.33;;;2.90;;
22144;SDS011;11238;48.730;11.566;2022-07-29T03:22:47;8.02;;;3.47;;
22144;SDS011;11238;48.730;11.566;2022-07-29T03:25:14;3.95;;;2.90;;
22144;SDS011;11238;48.730;11.566;2022-07-29T03:27:45;3.53;;;2.95;;
22144;SDS011;11238;48.730;11.566;2022-07-29T03:30:12;4.47;;;3.05;;
22144;SDS011;11238;48.730;11.566;2022-07-29T03:32:38;4.28;;;3.00;;
22144;SDS011;11238;48.730;11.566;2022-07-29T03:35:06;3.15;;;2.85;;
22144;SDS011;11238;48.730;11.566;2022-07-29T03:37:32;3.70;;;2.97;;
22144;SDS011;11238;48.730;11.566;2022-07-29T03:39:58;5.82;;;3.08;;
22144;SDS011;11238;48.730;11.566;2022-07-29T03:42:28;5.65;;;3.38;;
22144;SDS011;11238;48.730;11.566;2022-07-29T03:45:05;5.05;;;3.00;;
22144;SDS011;11238;48.730;11.566;2022-07-29T03:47:33;5.93;;;3.13;;
22144;SDS011;11238;48.730;11.566;2022-07-29T03:50:05;4.65;;;2.75;;
22144;SDS011;11238;48.730;11.566;2022-07-29T03:52:32;4.47;;;2.85;;
22144;SDS011;11238;48.730;11.566;2022-07-29T03:55:00;4.57;;;3.17;;
22144;SDS011;11238;48.730;11.566;2022-07-29T03:57:27;6.72;;;3.10;;
22144;SDS011;11238;48.730;11.566;2022-07-29T03:59:55;3.97;;;2.90;;
22144;SDS011;11238;48.730;11.566;2022-07-29T04:02:22;3.90;;;3.05;;
22144;SDS011;11238;48.730;11.566;2022-07-29T04:04:50;3.80;;;3.00;;
22144;SDS011;11238;48.730;11.566;2022-07-29T04:07:16;3.22;;;2.90;;
22144;SDS011;11238;48.730;11.566;2022-07-29T04:09:41;3.28;;;2.90;;
22144;SDS011;11238;48.730;11.566;2022-07-29T04:12:08;5.38;;;2.78;;
22144;SDS011;11238;48.730;11.566;2022-07-29T04:14:34;4.20;;;3.30;;
22144;SDS011;11238;48.730;11.566;2022-07-29T04:17:01;5.18;;;2.80;;
22144;SDS011;11238;48.730;11.566;2022-07-29T04:19:27;4.70;;;3.30;;
22144;SDS011;11238;48.730;11.566;2022-07-29T04:21:53;5.25;;;3.42;;
22144;SDS011;11238;48.730;11.566;2022-07-29T04:24:19;6.88;;;2.88;;
22144;SDS011;11238;48.730;11.566;2022-07-29T04:26:45;4.63;;;3.20;;
22144;SDS011;11238;48.730;11.566;2022-07-29T04:29:12;4.57;;;2.92;;
22144;SDS011;11238;48.730;11.566;2022-07-29T04:31:40;4.38;;;2.80;;
22144;SDS011;11238;48.730;11.566;2022-07-29T04:34:06;6.80;;;3.50;;
22144;SDS011;11238;48.730;11.566;2022-07-29T04:36:32;5.63;;;3.10;;
22144;SDS011;11238;48.730;11.566;2022-07-29T04:38:58;4.18;;;3.00;;
22144;SDS011;11238;48.730;11.566;2022-07-29T04:41:23;3.90;;;3.17;;
22144;SDS011;11238;48.730;11.566;2022-07-29T04:43:49;3.88;;;3.42;;
22144;SDS011;11238;48.730;11.566;2022-07-29T04:46:15;5.35;;;3.00;;
22144;SDS011;11238;48.730;11.566;2022-07-29T04:48:41;6.82;;;3.17;;
22144;SDS011;11238;48.730;11.566;2022-07-29T04:51:07;5.22;;;2.92;;
22144;SDS011;11238;48.730;11.566;2022-07-29T04:53:33;3.20;;;2.90;;
22144;SDS011;11238;48.730;11.566;2022-07-29T04:55:58;5.20;;;3.85;;
22144;SDS011;11238;48.730;11.566;2022-07-29T04:58:24;4.22;;;3.28;;
22144;SDS011;11238;48.730;11.566;2022-07-29T05:00:51;5.57;;;3.35;;
22144;SDS011;11238;48.730;11.566;2022-07-29T05:03:17;3.30;;;3.00;;
22144;SDS011;11238;48.730;11.566;2022-07-29T05:05:43;3.88;;;3.00;;
22144;SDS011;11238;48.730;11.566;2022-07-29T05:08:08;3.95;;;2.95;;
22144;SDS011;11238;48.730;11.566;2022-07-29T05:10:34;4.10;;;2.85;;
22144;SDS011;11238;48.730;11.566;2022-07-29T05:13:07;3.75;;;2.90;;
22144;SDS011;11238;48.730;11.566;2022-07-29T05:15:33;4.80;;;3.10;;
22144;SDS011;11238;48.730;11.566;2022-07-29T05:18:00;7.50;;;3.38;;
22144;SDS011;11238;48.730;11.566;2022-07-29T05:20:27;4.85;;;3.30;;
22144;SDS011;11238;48.730;11.566;2022-07-29T05:22:57;3.15;;;2.85;;
22144;SDS011;11238;48.730;11.566;2022-07-29T05:25:25;3.75;;;2.97;;
22144;SDS011;11238;48.730;11.566;2022-07-29T05:27:51;5.00;;;2.80;;
22144;SDS011;11238;48.730;11.566;2022-07-29T05:30:17;3.13;;;2.72;;
22144;SDS011;11238;48.730;11.566;2022-07-29T05:32:43;4.07;;;2.63;;
22144;SDS011;11238;48.730;11.566;2022-07-29T05:35:09;3.72;;;2.70;;
22144;SDS011;11238;48.730;11.566;2022-07-29T05:37:35;4.30;;;2.83;;
22144;SDS011;11238;48.730;11.566;2022-07-29T05:40:01;3.92;;;2.97;;
22144;SDS011;11238;48.730;11.566;2022-07-29T05:42:27;3.30;;;2.75;;
22144;SDS011;11238;48.730;11.566;2022-07-29T05:44:54;4.20;;;2.35;;
22144;SDS011;11238;48.730;11.566;2022-07-29T05:47:20;4.20;;;3.20;;
22144;SDS011;11238;48.730;11.566;2022-07-29T05:49:46;5.18;;;2.92;;
22144;SDS011;11238;48.730;11.566;2022-07-29T05:52:13;4.30;;;2.97;;
22144;SDS011;11238;48.730;11.566;2022-07-29T05:54:39;3.90;;;3.00;;
22144;SDS011;11238;48.730;11.566;2022-07-29T05:57:05;3.72;;;2.80;;
22144;SDS011;11238;48.730;11.566;2022-07-29T05:59:31;5.32;;;2.60;;
22144;SDS011;11238;48.730;11.566;2022-07-29T06:02:01;4.85;;;3.05;;
22144;SDS011;11238;48.730;11.566;2022-07-29T06:04:32;6.60;;;2.60;;
22144;SDS011;11238;48.730;11.566;2022-07-29T06:06:58;2.95;;;2.30;;
22144;SDS011;11238;48.730;11.566;2022-07-29T06:09:24;5.55;;;2.50;;
22144;SDS011;11238;48.730;11.566;2022-07-29T06:11:51;3.47;;;2.78;;
22144;SDS011;11238;48.730;11.566;2022-07-29T06:14:17;3.17;;;2.30;;
22144;SDS011;11238;48.730;11.566;2022-07-29T06:16:43;3.38;;;2.58;;
22144;SDS011;11238;48.730;11.566;2022-07-29T06:19:08;3.85;;;2.60;;
22144;SDS011;11238;48.730;11.566;2022-07-29T06:21:34;2.50;;;2.28;;
22144;SDS011;11238;48.730;11.566;2022-07-29T06:24:00;3.85;;;2.60;;
22144;SDS011;11238;48.730;11.566;2022-07-29T06:26:26;3.67;;;2.30;;
22144;SDS011;11238;48.730;11.566;2022-07-29T06:28:52;4.55;;;2.50;;
22144;SDS011;11238;48.730;11.566;2022-07-29T06:31:17;3.20;;;2.35;;
22144;SDS011;11238;48.730;11.566;2022-07-29T06:33:43;3.28;;;2.22;;
22144;SDS011;11238;48.730;11.566;2022-07-29T06:36:09;3.08;;;2.40;;
22144;SDS011;11238;48.730;11.566;2022-07-29T06:38:35;4.35;;;2.72;;
22144;SDS011;11238;48.730;11.566;2022-07-29T06:41:03;3.72;;;2.50;;
22144;SDS011;11238;48.730;11.566;2022-07-29T06:43:38;2.95;;;1.88;;
22144;SDS011;11238;48.730;11.566;2022-07-29T06:46:07;2.92;;;2.00;;
22144;SDS011;11238;48.730;11.566;2022-07-29T06:48:35;2.80;;;2.10;;
22144;SDS011;11238;48.730;11.566;2022-07-29T06:51:02;5.15;;;2.40;;
22144;SDS011;11238;48.730;11.566;2022-07-29T06:53:29;3.75;;;2.30;;
22144;SDS011;11238;48.730;11.566;2022-07-29T06:55:55;3.50;;;2.42;;
22144;SDS011;11238;48.730;11.566;2022-07-29T06:58:23;2.50;;;2.30;;
22144;SDS011;11238;48.730;11.566;2022-07-29T07:00:54;4.20;;;2.25;;
22144;SDS011;11238;48.730;11.566;2022-07-29T07:03:21;3.35;;;1.88;;
22144;SDS011;11238;48.730;11.566;2022-07-29T07:05:47;3.25;;;2.35;;
22144;SDS011;11238;48.730;11.566;2022-07-29T07:08:13;3.03;;;2.00;;
22144;SDS011;11238;48.730;11.566;2022-07-29T07:10:41;2.35;;;2.00;;
22144;SDS011;11238;48.730;11.566;2022-07-29T07:13:07;2.10;;;1.90;;
22144;SDS011;11238;48.730;11.566;2022-07-29T07:15:35;3.55;;;2.10;;
22144;SDS011;11238;48.730;11.566;2022-07-29T07:18:01;3.72;;;2.08;;
22144;SDS011;11238;48.730;11.566;2022-07-29T07:20:28;3.72;;;2.17;;
22144;SDS011;11238;48.730;11.566;2022-07-29T07:22:54;5.53;;;2.03;;
22144;SDS011;11238;48.730;11.566;2022-07-29T07:25:19;4.05;;;1.95;;
22144;SDS011;11238;48.730;11.566;2022-07-29T07:27:45;2.78;;;2.03;;
22144;SDS011;11238;48.730;11.566;2022-07-29T07:30:12;4.00;;;2.15;;
22144;SDS011;11238;48.730;11.566;2022-07-29T07:32:38;2.83;;;2.20;;
22144;SDS011;11238;48.730;11.566;2022-07-29T07:35:05;5.32;;;2.42;;
22144;SDS011;11238;48.730;11.566;2022-07-29T07:37:33;2.83;;;2.10;;
22144;SDS011;11238;48.730;11.566;2022-07-29T07:39:59;5.05;;;2.10;;
22144;SDS011;11238;48.730;11.566;2022-07-29T07:42:26;3.40;;;2.40;;
22144;SDS011;11238;48.730;11.566;2022-07-29T07:44:51;2.65;;;2.42;;
22144;SDS011;11238;48.730;11.566;2022-07-29T07:47:17;4.03;;;2.10;;
22144;SDS011;11238;48.730;11.566;2022-07-29T07:49:48;2.25;;;2.00;;
22144;SDS011;11238;48.730;11.566;2022-07-29T07:52:18;2.35;;;2.08;;
22144;SDS011;11238;48.730;11.566;2022-07-29T07:54:46;3.55;;;2.00;;
22144;SDS011;11238;48.730;11.566;2022-07-29T07:57:13;3.92;;;2.40;;
22144;SDS011;11238;48.730;11.566;2022-07-29T07:59:40;4.65;;;2.10;;
22144;SDS011;11238;48.730;11.566;2022-07-29T08:02:06;2.38;;;1.85;;
22144;SDS011;11238;48.730;11.566;2022-07-29T08:04:33;3.42;;;1.80;;
22144;SDS011;11238;48.730;11.566;2022-07-29T08:06:59;3.45;;;1.85;;
22144;SDS011;11238;48.730;11.566;2022-07-29T08:09:25;3.45;;;2.00;;
22144;SDS011;11238;48.730;11.566;2022-07-29T08:11:52;2.28;;;1.80;;
22144;SDS011;11238;48.730;11.566;2022-07-29T08:14:19;2.67;;;1.75;;
22144;SDS011;11238;48.730;11.566;2022-07-29T08:16:45;1.95;;;1.58;;
22144;SDS011;11238;48.730;11.566;2022-07-29T08:19:11;2.60;;;1.77;;
22144;SDS011;11238;48.730;11.566;2022-07-29T08:21:37;3.20;;;1.40;;
22144;SDS011;11238;48.730;11.566;2022-07-29T08:24:03;3.30;;;1.65;;
22144;SDS011;11238;48.730;11.566;2022-07-29T08:26:51;2.90;;;1.50;;
22144;SDS011;11238;48.730;11.566;2022-07-29T08:29:17;2.83;;;1.55;;
22144;SDS011;11238;48.730;11.566;2022-07-29T08:31:43;3.40;;;1.60;;
22144;SDS011;11238;48.730;11.566;2022-07-29T08:34:08;1.58;;;1.48;;
22144;SDS011;11238;48.730;11.566;2022-07-29T08:36:34;3.05;;;1.30;;
22144;SDS011;11238;48.730;11.566;2022-07-29T08:39:01;1.73;;;1.27;;
22144;SDS011;11238;48.730;11.566;2022-07-29T08:41:27;1.70;;;1.30;;
22144;SDS011;11238;48.730;11.566;2022-07-29T08:43:53;3.80;;;1.48;;
22144;SDS011;11238;48.730;11.566;2022-07-29T08:46:19;1.63;;;1.10;;
22144;SDS011;11238;48.730;11.566;2022-07-29T08:48:46;1.27;;;1.17;;
22144;SDS011;11238;48.730;11.566;2022-07-29T08:51:16;2.10;;;1.45;;
22144;SDS011;11238;48.730;11.566;2022-07-29T08:53:44;1.98;;;1.63;;
22144;SDS011;11238;48.730;11.566;2022-07-29T08:56:13;5.43;;;1.90;;
22144;SDS011;11238;48.730;11.566;2022-07-29T08:58:42;1.60;;;1.50;;
22144;SDS011;11238;48.730;11.566;2022-07-29T09:01:08;2.03;;;1.40;;
22144;SDS011;11238;48.730;11.566;2022-07-29T09:03:37;2.10;;;1.60;;
22144;SDS011;11238;48.730;11.566;2022-07-29T09:06:05;1.65;;;1.27;;
22144;SDS011;11238;48.730;11.566;2022-07-29T09:08:31;1.65;;;1.45;;
22144;SDS011;11238;48.730;11.566;2022-07-29T09:10:58;2.70;;;1.20;;
22144;SDS011;11238;48.730;11.566;2022-07-29T09:13:26;3.38;;;1.40;;
22144;SDS011;11238;48.730;11.566;2022-07-29T09:15:51;1.83;;;1.30;;
22144;SDS011;11238;48.730;11.566;2022-07-29T09:18:33;4.07;;;1.20;;
22144;SDS011;11238;48.730;11.566;2022-07-29T09:21:01;3.30;;;1.50;;
22144;SDS011;11238;48.730;11.566;2022-07-29T09:26:45;1.60;;;1.40;;
22144;SDS011;11238;48.730;11.566;2022-07-29T09:29:13;4.07;;;1.33;;
22144;SDS011;11238;48.730;11.566;2022-07-29T09:31:46;2.03;;;1.50;;
22144;SDS011;11238;48.730;11.566;2022-07-29T09:34:16;1.60;;;1.50;;
22144;SDS011;11238;48.730;11.566;2022-07-29T09:36:47;1.73;;;1.40;;
22144;SDS011;11238;48.730;11.566;2022-07-29T09:39:14;1.48;;;1.08;;
22144;SDS011;11238;48.730;11.566;2022-07-29T09:41:50;1.63;;;1.10;;
22144;SDS011;11238;48.730;11.566;2022-07-29T09:44:18;1.48;;;1.20;;
22144;SDS011;11238;48.730;11.566;2022-07-29T09:46:58;1.63;;;1.50;;
22144;SDS011;11238;48.730;11.566;2022-07-29T09:49:35;1.42;;;1.20;;
22144;SDS011;11238;48.730;11.566;2022-07-29T09:52:15;1.83;;;1.58;;
22144;SDS011;11238;48.730;11.566;2022-07-29T09:54:44;1.27;;;1.13;;
22144;SDS011;11238;48.730;11.566;2022-07-29T09:57:21;2.65;;;1.50;;
22144;SDS011;11238;48.730;11.566;2022-07-29T09:59:55;2.38;;;1.25;;
22144;SDS011;11238;48.730;11.566;2022-07-29T10:02:27;1.67;;;1.50;;
22144;SDS011;11238;48.730;11.566;2022-07-29T10:04:57;1.55;;;1.45;;
22144;SDS011;11238;48.730;11.566;2022-07-29T10:07:23;3.20;;;1.88;;
22144;SDS011;11238;48.730;11.566;2022-07-29T10:09:52;3.17;;;1.48;;
22144;SDS011;11238;48.730;11.566;2022-07-29T10:12:23;1.83;;;1.58;;
22144;SDS011;11238;48.730;11.566;2022-07-29T10:14:49;2.58;;;1.40;;
22144;SDS011;11238;48.730;11.566;2022-07-29T10:17:16;3.30;;;1.60;;
22144;SDS011;11238;48.730;11.566;2022-07-29T10:19:43;4.28;;;1.70;;
22144;SDS011;11238;48.730;11.566;2022-07-29T10:22:10;1.88;;;1.30;;
22144;SDS011;11238;48.730;11.566;2022-07-29T10:24:36;2.92;;;1.45;;
22144;SDS011;11238;48.730;11.566;2022-07-29T10:27:04;2.25;;;1.40;;
22144;SDS011;11238;48.730;11.566;2022-07-29T10:29:32;4.25;;;1.40;;
22144;SDS011;11238;48.730;11.566;2022-07-29T10:40:46;1.95;;;1.70;;
22144;SDS011;11238;48.730;11.566;2022-07-29T10:43:45;2.00;;;1.80;;
22144;SDS011;11238;48.730;11.566;2022-07-29T10:46:13;2.30;;;1.88;;
22144;SDS011;11238;48.730;11.566;2022-07-29T11:05:04;1.55;;;1.40;;
22144;SDS011;11238;48.730;11.566;2022-07-29T11:07:32;1.95;;;1.60;;
22144;SDS011;11238;48.730;11.566;2022-07-29T11:20:42;1.85;;;1.60;;
22144;SDS011;11238;48.730;11.566;2022-07-29T11:39:39;1.77;;;1.67;;
22144;SDS011;11238;48.730;11.566;2022-07-29T11:47:26;2.17;;;1.30;;
22144;SDS011;11238;48.730;11.566;2022-07-29T11:49:56;2.15;;;1.52;;
22144;SDS011;11238;48.730;11.566;2022-07-29T11:52:23;1.40;;;1.30;;
22144;SDS011;11238;48.730;11.566;2022-07-29T11:55:03;1.48;;;1.38;;
22144;SDS011;11238;48.730;11.566;2022-07-29T11:57:31;2.08;;;1.33;;
22144;SDS011;11238;48.730;11.566;2022-07-29T11:59:59;1.40;;;1.30;;
22144;SDS011;11238;48.730;11.566;2022-07-29T12:02:25;2.88;;;1.30;;
22144;SDS011;11238;48.730;11.566;2022-07-29T12:05:04;1.52;;;1.40;;
22144;SDS011;11238;48.730;11.566;2022-07-29T12:07:30;2.22;;;1.70;;
22144;SDS011;11238;48.730;11.566;2022-07-29T12:09:57;3.05;;;1.40;;
22144;SDS011;11238;48.730;11.566;2022-07-29T12:12:23;3.25;;;1.52;;
22144;SDS011;11238;48.730;11.566;2022-07-29T12:14:50;2.28;;;1.67;;
22144;SDS011;11238;48.730;11.566;2022-07-29T12:17:32;1.73;;;1.63;;
22144;SDS011;11238;48.730;11.566;2022-07-29T12:20:01;3.47;;;1.33;;
22144;SDS011;11238;48.730;11.566;2022-07-29T12:22:29;2.78;;;1.65;;
22144;SDS011;11238;48.730;11.566;2022-07-29T12:25:06;3.85;;;1.90;;
22144;SDS011;11238;48.730;11.566;2022-07-29T12:27:34;4.70;;;1.80;;
22144;SDS011;11238;48.730;11.566;2022-07-29T12:30:06;2.22;;;1.55;;
22144;SDS011;11238;48.730;11.566;2022-07-29T12:32:37;2.17;;;1.50;;
22144;SDS011;11238;48.730;11.566;2022-07-29T12:35:06;2.58;;;1.77;;
22144;SDS011;11238;48.730;11.566;2022-07-29T12:37:37;1.67;;;1.52;;
22144;SDS011;11238;48.730;11.566;2022-07-29T12:40:04;2.58;;;1.83;;
22144;SDS011;11238;48.730;11.566;2022-07-29T12:42:32;2.45;;;1.80;;
22144;SDS011;11238;48.730;11.566;2022-07-29T12:44:57;2.50;;;1.67;;
22144;SDS011;11238;48.730;11.566;2022-07-29T12:47:24;2.20;;;1.77;;
22144;SDS011;11238;48.730;11.566;2022-07-29T12:49:50;3.15;;;1.65;;
22144;SDS011;11238;48.730;11.566;2022-07-29T12:52:32;4.15;;;1.50;;
22144;SDS011;11238;48.730;11.566;2022-07-29T12:54:59;4.03;;;1.60;;
22144;SDS011;11238;48.730;11.566;2022-07-29T12:57:26;3.75;;;1.48;;
22144;SDS011;11238;48.730;11.566;2022-07-29T13:02:38;2.22;;;1.38;;
22144;SDS011;11238;48.730;11.566;2022-07-29T13:05:06;2.13;;;1.45;;
22144;SDS011;11238;48.730;11.566;2022-07-29T13:07:35;1.83;;;1.40;;
22144;SDS011;11238;48.730;11.566;2022-07-29T13:10:15;3.00;;;1.70;;
22144;SDS011;11238;48.730;11.566;2022-07-29T13:13:05;4.72;;;2.00;;
22144;SDS011;11238;48.730;11.566;2022-07-29T13:15:35;3.75;;;1.73;;
22144;SDS011;11238;48.730;11.566;2022-07-29T13:21:12;1.83;;;1.58;;
22144;SDS011;11238;48.730;11.566;2022-07-29T13:23:38;1.85;;;1.63;;
22144;SDS011;11238;48.730;11.566;2022-07-29T13:26:08;4.03;;;1.48;;
22144;SDS011;11238;48.730;11.566;2022-07-29T13:28:36;5.25;;;2.28;;
22144;SDS011;11238;48.730;11.566;2022-07-29T13:31:03;3.05;;;2.10;;
22144;SDS011;11238;48.730;11.566;2022-07-29T13:33:30;2.15;;;1.48;;
22144;SDS011;11238;48.730;11.566;2022-07-29T13:35:55;3.05;;;2.08;;
22144;SDS011;11238;48.730;11.566;2022-07-29T13:38:21;2.58;;;1.80;;
22144;SDS011;11238;48.730;11.566;2022-07-29T13:40:47;3.42;;;2.03;;
22144;SDS011;11238;48.730;11.566;2022-07-29T13:43:13;2.83;;;2.13;;
22144;SDS011;11238;48.730;11.566;2022-07-29T13:45:39;3.35;;;2.28;;
22144;SDS011;11238;48.730;11.566;2022-07-29T13:48:06;2.10;;;1.90;;
22144;SDS011;11238;48.730;11.566;2022-07-29T13:50:32;4.88;;;2.20;;
22144;SDS011;11238;48.730;11.566;2022-07-29T13:52:58;6.90;;;2.28;;
22144;SDS011;11238;48.730;11.566;2022-07-29T13:55:23;2.45;;;1.80;;
22144;SDS011;11238;48.730;11.566;2022-07-29T13:57:49;2.63;;;2.08;;
22144;SDS011;11238;48.730;11.566;2022-07-29T14:00:15;3.78;;;2.30;;
22144;SDS011;11238;48.730;11.566;2022-07-29T14:02:42;5.22;;;2.83;;
22144;SDS011;11238;48.730;11.566;2022-07-29T14:05:07;3.53;;;2.40;;
22144;SDS011;11238;48.730;11.566;2022-07-29T14:07:35;6.53;;;2.40;;
22144;SDS011;11238;48.730;11.566;2022-07-29T14:10:02;3.63;;;2.20;;
22144;SDS011;11238;48.730;11.566;2022-07-29T14:12:28;3.72;;;2.33;;
22144;SDS011;11238;48.730;11.566;2022-07-29T14:14:55;3.38;;;2.10;;
22144;SDS011;11238;48.730;11.566;2022-07-29T14:17:22;2.58;;;2.30;;
22144;SDS011;11238;48.730;11.566;2022-07-29T14:19:48;5.88;;;2.63;;
22144;SDS011;11238;48.730;11.566;2022-07-29T14:22:14;4.53;;;2.20;;
22144;SDS011;11238;48.730;11.566;2022-07-29T14:24:40;4.88;;;2.72;;
22144;SDS011;11238;48.730;11.566;2022-07-29T14:27:06;3.13;;;2.40;;
22144;SDS011;11238;48.730;11.566;2022-07-29T14:29:33;6.07;;;2.70;;
22144;SDS011;11238;48.730;11.566;2022-07-29T14:31:59;6.63;;;2.53;;
22144;SDS011;11238;48.730;11.566;2022-07-29T14:34:25;2.97;;;2.08;;
22144;SDS011;11238;48.730;11.566;2022-07-29T14:36:51;6.50;;;2.53;;
22144;SDS011;11238;48.730;11.566;2022-07-29T14:39:20;5.88;;;2.70;;
22144;SDS011;11238;48.730;11.566;2022-07-29T14:41:48;5.10;;;2.30;;
22144;SDS011;11238;48.730;11.566;2022-07-29T14:44:16;6.47;;;2.75;;
22144;SDS011;11238;48.730;11.566;2022-07-29T14:46:42;9.07;;;2.92;;
22144;SDS011;11238;48.730;11.566;2022-07-29T14:49:09;5.50;;;2.78;;
22144;SDS011;11238;48.730;11.566;2022-07-29T14:51:35;6.07;;;2.90;;
22144;SDS011;11238;48.730;11.566;2022-07-29T14:54:00;3.92;;;3.00;;
22144;SDS011;11238;48.730;11.566;2022-07-29T14:56:26;5.43;;;3.03;;
22144;SDS011;11238;48.730;11.566;2022-07-29T14:58:55;4.05;;;3.03;;
22144;SDS011;11238;48.730;11.566;2022-07-29T15:01:22;4.68;;;3.08;;
22144;SDS011;11238;48.730;11.566;2022-07-29T15:03:48;4.38;;;2.78;;
22144;SDS011;11238;48.730;11.566;2022-07-29T15:06:15;9.38;;;3.80;;
22144;SDS011;11238;48.730;11.566;2022-07-29T15:08:41;8.27;;;3.08;;
22144;SDS011;11238;48.730;11.566;2022-07-29T15:11:06;4.00;;;3.35;;
22144;SDS011;11238;48.730;11.566;2022-07-29T15:13:33;6.75;;;3.25;;
22144;SDS011;11238;48.730;11.566;2022-07-29T15:15:58;5.75;;;3.30;;
22144;SDS011;11238;48.730;11.566;2022-07-29T15:18:24;6.28;;;2.95;;
22144;SDS011;11238;48.730;11.566;2022-07-29T15:20:50;7.82;;;3.30;;
22144;SDS011;11238;48.730;11.566;2022-07-29T15:23:16;5.75;;;2.80;;
22144;SDS011;11238;48.730;11.566;2022-07-29T15:25:42;8.73;;;3.28;;
22144;SDS011;11238;48.730;11.566;2022-07-29T15:28:08;6.68;;;3.17;;
22144;SDS011;11238;48.730;11.566;2022-07-29T15:30:34;6.50;;;3.20;;
22144;SDS011;11238;48.730;11.566;2022-07-29T15:33:05;6.68;;;3.30;;
22144;SDS011;11238;48.730;11.566;2022-07-29T15:35:33;6.38;;;3.38;;
22144;SDS011;11238;48.730;11.566;2022-07-29T15:37:59;4.82;;;3.22;;
22144;SDS011;11238;48.730;11.566;2022-07-29T15:40:25;8.90;;;3.55;;
22144;SDS011;11238;48.730;11.566;2022-07-29T15:42:51;4.05;;;3.17;;
22144;SDS011;11238;48.730;11.566;2022-07-29T15:45:17;5.93;;;3.63;;
22144;SDS011;11238;48.730;11.566;2022-07-29T15:47:43;5.35;;;3.72;;
22144;SDS011;11238;48.730;11.566;2022-07-29T15:50:08;5.43;;;3.17;;
22144;SDS011;11238;48.730;11.566;2022-07-29T15:52:40;3.50;;;3.17;;
22144;SDS011;11238;48.730;11.566;2022-07-29T15:55:09;5.78;;;3.10;;
22144;SDS011;11238;48.730;11.566;2022-07-29T15:57:35;4.22;;;3.25;;
22144;SDS011;11238;48.730;11.566;2022-07-29T16:00:02;6.78;;;3.38;;
22144;SDS011;11238;48.730;11.566;2022-07-29T16:02:33;9.57;;;3.08;;